sensor_id;sensor_type;location;lat;lon;timestamp;P1;durP1;ratioP1;P2;durP2;ratioP2
70071;SDS011;57434;42.794;23.302;2022-10-16T00:01:04;10.27;;;3.95;;
70071;SDS011;57434;42.794;23.302;2022-10-16T00:03:33;11.67;;;4.07;;
70071;SDS011;57434;42.794;23.302;2022-10-16T00:06:00;10.35;;;3.80;;
70071;SDS011;57434;42.794;23.302;2022-10-16T00:08:28;11.35;;;4.18;;
70071;SDS011;57434;42.794;23.302;2022-10-16T00:11:02;9.60;;;4.43;;
70071;SDS011;57434;42.794;23.302;2022-10-16T00:13:34;8.85;;;3.65;;
70071;SDS011;57434;42.794;23.302;2022-10-16T00:16:04;19.53;;;5.13;;
70071;SDS011;57434;42.794;23.302;2022-10-16T00:18:31;9.35;;;4.20;;
70071;SDS011;57434;42.794;23.302;2022-10-16T00:21:05;8.68;;;4.10;;
70071;SDS011;57434;42.794;23.302;2022-10-16T00:23:34;10.32;;;4.43;;
70071;SDS011;57434;42.794;23.302;2022-10-16T00:26:04;8.38;;;3.90;;
70071;SDS011;57434;42.794;23.302;2022-10-16T00:28:32;9.63;;;3.50;;
70071;SDS011;57434;42.794;23.302;2022-10-16T00:31:10;12.32;;;5.05;;
70071;SDS011;57434;42.794;23.302;2022-10-16T00:33:39;10.35;;;3.58;;
70071;SDS011;57434;42.794;23.302;2022-10-16T00:36:07;9.20;;;3.88;;
70071;SDS011;57434;42.794;23.302;2022-10-16T00:38:37;10.07;;;3.85;;
70071;SDS011;57434;42.794;23.302;2022-10-16T00:41:05;10.60;;;3.77;;
70071;SDS011;57434;42.794;23.302;2022-10-16T00:43:46;7.63;;;3.55;;
70071;SDS011;57434;42.794;23.302;2022-10-16T00:46:20;9.75;;;3.63;;
70071;SDS011;57434;42.794;23.302;2022-10-16T00:49:06;8.95;;;4.05;;
70071;SDS011;57434;42.794;23.302;2022-10-16T00:51:42;9.75;;;3.30;;
70071;SDS011;57434;42.794;23.302;2022-10-16T00:54:13;8.97;;;3.30;;
70071;SDS011;57434;42.794;23.302;2022-10-16T00:56:42;8.57;;;3.03;;
70071;SDS011;57434;42.794;23.302;2022-10-16T00:59:15;10.70;;;4.10;;
70071;SDS011;57434;42.794;23.302;2022-10-16T01:01:59;9.73;;;4.05;;
70071;SDS011;57434;42.794;23.302;2022-10-16T01:04:26;11.13;;;4.28;;
70071;SDS011;57434;42.794;23.302;2022-10-16T01:15:25;12.60;;;4.25;;
70071;SDS011;57434;42.794;23.302;2022-10-16T01:17:58;11.40;;;3.83;;
70071;SDS011;57434;42.794;23.302;2022-10-16T01:20:34;8.47;;;3.53;;
70071;SDS011;57434;42.794;23.302;2022-10-16T01:28:24;13.95;;;4.95;;
70071;SDS011;57434;42.794;23.302;2022-10-16T01:31:00;11.30;;;3.90;;
70071;SDS011;57434;42.794;23.302;2022-10-16T01:33:36;9.43;;;3.87;;
70071;SDS011;57434;42.794;23.302;2022-10-16T01:36:19;10.35;;;4.32;;
70071;SDS011;57434;42.794;23.302;2022-10-16T01:38:52;10.93;;;4.25;;
70071;SDS011;57434;42.794;23.302;2022-10-16T01:41:28;9.43;;;3.95;;
70071;SDS011;57434;42.794;23.302;2022-10-16T01:44:06;9.10;;;3.88;;
70071;SDS011;57434;42.794;23.302;2022-10-16T01:46:39;9.07;;;4.20;;
70071;SDS011;57434;42.794;23.302;2022-10-16T01:49:09;10.68;;;3.50;;
70071;SDS011;57434;42.794;23.302;2022-10-16T01:51:38;10.32;;;3.97;;
70071;SDS011;57434;42.794;23.302;2022-10-16T01:54:06;8.27;;;3.30;;
70071;SDS011;57434;42.794;23.302;2022-10-16T01:56:34;10.20;;;4.25;;
70071;SDS011;57434;42.794;23.302;2022-10-16T01:59:06;10.63;;;4.47;;
70071;SDS011;57434;42.794;23.302;2022-10-16T02:01:38;9.55;;;3.78;;
70071;SDS011;57434;42.794;23.302;2022-10-16T02:04:11;10.73;;;3.60;;
70071;SDS011;57434;42.794;23.302;2022-10-16T02:06:43;11.77;;;4.10;;
70071;SDS011;57434;42.794;23.302;2022-10-16T02:09:10;9.15;;;4.07;;
70071;SDS011;57434;42.794;23.302;2022-10-16T02:11:37;10.47;;;3.33;;
70071;SDS011;57434;42.794;23.302;2022-10-16T02:14:05;8.65;;;3.85;;
70071;SDS011;57434;42.794;23.302;2022-10-16T02:16:39;7.55;;;3.60;;
70071;SDS011;57434;42.794;23.302;2022-10-16T02:19:08;9.43;;;3.97;;
70071;SDS011;57434;42.794;23.302;2022-10-16T02:21:58;8.63;;;3.53;;
70071;SDS011;57434;42.794;23.302;2022-10-16T02:24:36;10.23;;;3.73;;
70071;SDS011;57434;42.794;23.302;2022-10-16T02:27:10;8.43;;;3.38;;
70071;SDS011;57434;42.794;23.302;2022-10-16T02:29:46;8.38;;;3.42;;
70071;SDS011;57434;42.794;23.302;2022-10-16T02:32:21;9.95;;;4.93;;
70071;SDS011;57434;42.794;23.302;2022-10-16T02:34:51;9.07;;;3.88;;
70071;SDS011;57434;42.794;23.302;2022-10-16T02:37:18;13.00;;;5.27;;
70071;SDS011;57434;42.794;23.302;2022-10-16T02:39:45;13.60;;;4.40;;
70071;SDS011;57434;42.794;23.302;2022-10-16T02:42:13;10.80;;;4.75;;
70071;SDS011;57434;42.794;23.302;2022-10-16T02:44:41;7.75;;;3.25;;
70071;SDS011;57434;42.794;23.302;2022-10-16T02:47:07;9.73;;;4.22;;
70071;SDS011;57434;42.794;23.302;2022-10-16T02:49:35;10.23;;;4.03;;
70071;SDS011;57434;42.794;23.302;2022-10-16T02:52:01;8.52;;;3.40;;
70071;SDS011;57434;42.794;23.302;2022-10-16T02:54:28;8.30;;;4.03;;
70071;SDS011;57434;42.794;23.302;2022-10-16T02:56:55;19.27;;;3.95;;
70071;SDS011;57434;42.794;23.302;2022-10-16T02:59:22;11.27;;;3.75;;
70071;SDS011;57434;42.794;23.302;2022-10-16T03:01:49;8.40;;;3.70;;
70071;SDS011;57434;42.794;23.302;2022-10-16T03:04:16;11.15;;;3.55;;
70071;SDS011;57434;42.794;23.302;2022-10-16T03:06:42;13.18;;;3.97;;
70071;SDS011;57434;42.794;23.302;2022-10-16T03:09:09;8.13;;;3.42;;
70071;SDS011;57434;42.794;23.302;2022-10-16T03:11:36;11.30;;;3.90;;
70071;SDS011;57434;42.794;23.302;2022-10-16T03:14:03;8.80;;;3.63;;
70071;SDS011;57434;42.794;23.302;2022-10-16T03:16:30;9.85;;;3.80;;
70071;SDS011;57434;42.794;23.302;2022-10-16T03:18:57;19.42;;;5.55;;
70071;SDS011;57434;42.794;23.302;2022-10-16T03:21:23;10.50;;;3.65;;
70071;SDS011;57434;42.794;23.302;2022-10-16T03:23:50;12.00;;;4.63;;
70071;SDS011;57434;42.794;23.302;2022-10-16T03:26:17;8.73;;;3.63;;
70071;SDS011;57434;42.794;23.302;2022-10-16T03:28:44;11.93;;;3.88;;
70071;SDS011;57434;42.794;23.302;2022-10-16T03:31:11;9.43;;;3.58;;
70071;SDS011;57434;42.794;23.302;2022-10-16T03:33:38;9.15;;;3.30;;
70071;SDS011;57434;42.794;23.302;2022-10-16T03:36:05;8.05;;;3.90;;
70071;SDS011;57434;42.794;23.302;2022-10-16T03:38:32;8.03;;;3.77;;
70071;SDS011;57434;42.794;23.302;2022-10-16T03:40:59;7.13;;;3.60;;
70071;SDS011;57434;42.794;23.302;2022-10-16T03:43:26;8.60;;;3.42;;
70071;SDS011;57434;42.794;23.302;2022-10-16T03:45:53;11.02;;;3.78;;
70071;SDS011;57434;42.794;23.302;2022-10-16T03:48:20;8.95;;;3.38;;
70071;SDS011;57434;42.794;23.302;2022-10-16T03:50:47;12.43;;;4.47;;
70071;SDS011;57434;42.794;23.302;2022-10-16T03:53:14;11.48;;;5.70;;
70071;SDS011;57434;42.794;23.302;2022-10-16T03:55:42;8.80;;;4.78;;
70071;SDS011;57434;42.794;23.302;2022-10-16T03:58:09;9.10;;;4.20;;
70071;SDS011;57434;42.794;23.302;2022-10-16T04:00:43;9.18;;;3.92;;
70071;SDS011;57434;42.794;23.302;2022-10-16T04:03:11;9.03;;;3.70;;
70071;SDS011;57434;42.794;23.302;2022-10-16T04:05:38;10.73;;;3.38;;
70071;SDS011;57434;42.794;23.302;2022-10-16T04:08:06;8.32;;;3.25;;
70071;SDS011;57434;42.794;23.302;2022-10-16T04:10:33;10.98;;;3.45;;
70071;SDS011;57434;42.794;23.302;2022-10-16T04:13:00;7.95;;;3.30;;
70071;SDS011;57434;42.794;23.302;2022-10-16T04:15:27;11.10;;;3.60;;
70071;SDS011;57434;42.794;23.302;2022-10-16T04:17:53;12.25;;;3.00;;
70071;SDS011;57434;42.794;23.302;2022-10-16T04:20:20;10.50;;;3.38;;
70071;SDS011;57434;42.794;23.302;2022-10-16T04:22:47;7.53;;;2.95;;
70071;SDS011;57434;42.794;23.302;2022-10-16T04:25:15;7.10;;;2.83;;
70071;SDS011;57434;42.794;23.302;2022-10-16T04:27:41;9.60;;;3.37;;
70071;SDS011;57434;42.794;23.302;2022-10-16T04:30:11;8.20;;;3.22;;
70071;SDS011;57434;42.794;23.302;2022-10-16T04:32:38;9.45;;;3.95;;
70071;SDS011;57434;42.794;23.302;2022-10-16T04:35:06;7.43;;;2.88;;
70071;SDS011;57434;42.794;23.302;2022-10-16T04:37:33;11.63;;;3.65;;
70071;SDS011;57434;42.794;23.302;2022-10-16T04:40:00;8.43;;;3.47;;
70071;SDS011;57434;42.794;23.302;2022-10-16T04:42:26;9.90;;;3.40;;
70071;SDS011;57434;42.794;23.302;2022-10-16T04:44:53;8.52;;;3.35;;
70071;SDS011;57434;42.794;23.302;2022-10-16T04:47:20;12.90;;;4.22;;
70071;SDS011;57434;42.794;23.302;2022-10-16T04:49:47;9.60;;;4.22;;
70071;SDS011;57434;42.794;23.302;2022-10-16T04:52:14;7.53;;;3.33;;
70071;SDS011;57434;42.794;23.302;2022-10-16T04:54:41;8.40;;;3.65;;
70071;SDS011;57434;42.794;23.302;2022-10-16T04:57:08;11.70;;;3.60;;
70071;SDS011;57434;42.794;23.302;2022-10-16T04:59:35;11.75;;;3.78;;
70071;SDS011;57434;42.794;23.302;2022-10-16T05:02:02;8.27;;;3.22;;
70071;SDS011;57434;42.794;23.302;2022-10-16T05:04:30;10.83;;;3.20;;
70071;SDS011;57434;42.794;23.302;2022-10-16T05:06:56;11.65;;;4.13;;
70071;SDS011;57434;42.794;23.302;2022-10-16T05:09:23;9.88;;;4.03;;
70071;SDS011;57434;42.794;23.302;2022-10-16T05:11:50;10.85;;;3.67;;
70071;SDS011;57434;42.794;23.302;2022-10-16T05:14:17;6.43;;;3.25;;
70071;SDS011;57434;42.794;23.302;2022-10-16T05:16:44;9.40;;;3.90;;
70071;SDS011;57434;42.794;23.302;2022-10-16T05:19:13;22.63;;;11.13;;
70071;SDS011;57434;42.794;23.302;2022-10-16T05:21:53;23.23;;;9.95;;
70071;SDS011;57434;42.794;23.302;2022-10-16T05:24:20;14.57;;;7.20;;
70071;SDS011;57434;42.794;23.302;2022-10-16T05:26:46;14.07;;;5.75;;
70071;SDS011;57434;42.794;23.302;2022-10-16T05:29:13;9.47;;;4.63;;
70071;SDS011;57434;42.794;23.302;2022-10-16T05:31:41;10.63;;;4.57;;
70071;SDS011;57434;42.794;23.302;2022-10-16T05:34:08;10.10;;;3.88;;
70071;SDS011;57434;42.794;23.302;2022-10-16T05:36:34;12.95;;;4.55;;
70071;SDS011;57434;42.794;23.302;2022-10-16T05:39:02;12.98;;;4.45;;
70071;SDS011;57434;42.794;23.302;2022-10-16T05:41:29;10.87;;;4.63;;
70071;SDS011;57434;42.794;23.302;2022-10-16T05:43:56;9.50;;;4.32;;
70071;SDS011;57434;42.794;23.302;2022-10-16T05:46:23;8.73;;;4.07;;
70071;SDS011;57434;42.794;23.302;2022-10-16T05:48:51;11.48;;;4.78;;
70071;SDS011;57434;42.794;23.302;2022-10-16T05:51:19;8.93;;;3.85;;
70071;SDS011;57434;42.794;23.302;2022-10-16T05:53:46;10.20;;;4.20;;
70071;SDS011;57434;42.794;23.302;2022-10-16T05:56:13;8.73;;;4.22;;
70071;SDS011;57434;42.794;23.302;2022-10-16T05:58:40;9.13;;;4.13;;
70071;SDS011;57434;42.794;23.302;2022-10-16T06:01:16;8.48;;;3.85;;
70071;SDS011;57434;42.794;23.302;2022-10-16T06:03:44;10.55;;;4.68;;
70071;SDS011;57434;42.794;23.302;2022-10-16T06:06:12;13.13;;;4.67;;
70071;SDS011;57434;42.794;23.302;2022-10-16T06:08:47;14.35;;;5.80;;
70071;SDS011;57434;42.794;23.302;2022-10-16T06:11:19;13.15;;;6.63;;
70071;SDS011;57434;42.794;23.302;2022-10-16T06:13:54;12.57;;;6.28;;
70071;SDS011;57434;42.794;23.302;2022-10-16T06:16:24;14.73;;;5.43;;
70071;SDS011;57434;42.794;23.302;2022-10-16T06:18:51;10.87;;;5.50;;
70071;SDS011;57434;42.794;23.302;2022-10-16T06:21:20;9.38;;;5.10;;
70071;SDS011;57434;42.794;23.302;2022-10-16T06:23:48;9.68;;;4.80;;
70071;SDS011;57434;42.794;23.302;2022-10-16T06:26:17;9.50;;;4.25;;
70071;SDS011;57434;42.794;23.302;2022-10-16T06:28:45;9.60;;;4.43;;
70071;SDS011;57434;42.794;23.302;2022-10-16T06:31:13;9.73;;;4.63;;
70071;SDS011;57434;42.794;23.302;2022-10-16T06:33:41;10.80;;;5.38;;
70071;SDS011;57434;42.794;23.302;2022-10-16T06:36:11;12.13;;;4.68;;
70071;SDS011;57434;42.794;23.302;2022-10-16T06:38:40;10.15;;;3.10;;
70071;SDS011;57434;42.794;23.302;2022-10-16T06:41:07;11.15;;;3.60;;
70071;SDS011;57434;42.794;23.302;2022-10-16T06:43:40;10.00;;;3.50;;
70071;SDS011;57434;42.794;23.302;2022-10-16T06:46:09;7.63;;;3.95;;
70071;SDS011;57434;42.794;23.302;2022-10-16T06:48:37;10.75;;;4.00;;
70071;SDS011;57434;42.794;23.302;2022-10-16T06:51:15;8.68;;;3.28;;
70071;SDS011;57434;42.794;23.302;2022-10-16T06:53:47;6.97;;;3.15;;
70071;SDS011;57434;42.794;23.302;2022-10-16T06:56:31;7.53;;;3.37;;
70071;SDS011;57434;42.794;23.302;2022-10-16T06:58:59;9.57;;;3.38;;
70071;SDS011;57434;42.794;23.302;2022-10-16T07:01:27;8.40;;;3.88;;
70071;SDS011;57434;42.794;23.302;2022-10-16T07:03:54;7.68;;;3.63;;
70071;SDS011;57434;42.794;23.302;2022-10-16T07:06:22;7.18;;;3.30;;
70071;SDS011;57434;42.794;23.302;2022-10-16T07:08:51;7.60;;;3.50;;
70071;SDS011;57434;42.794;23.302;2022-10-16T07:11:20;7.30;;;3.63;;
70071;SDS011;57434;42.794;23.302;2022-10-16T07:13:50;8.45;;;3.70;;
70071;SDS011;57434;42.794;23.302;2022-10-16T07:16:25;8.80;;;3.90;;
70071;SDS011;57434;42.794;23.302;2022-10-16T07:18:57;10.25;;;4.40;;
70071;SDS011;57434;42.794;23.302;2022-10-16T07:21:30;13.70;;;4.87;;
70071;SDS011;57434;42.794;23.302;2022-10-16T07:23:59;9.68;;;4.43;;
70071;SDS011;57434;42.794;23.302;2022-10-16T07:26:27;11.13;;;5.28;;
70071;SDS011;57434;42.794;23.302;2022-10-16T07:28:56;11.27;;;5.00;;
70071;SDS011;57434;42.794;23.302;2022-10-16T07:31:23;8.77;;;4.47;;
70071;SDS011;57434;42.794;23.302;2022-10-16T07:33:51;9.77;;;4.47;;
70071;SDS011;57434;42.794;23.302;2022-10-16T07:36:19;8.93;;;4.18;;
70071;SDS011;57434;42.794;23.302;2022-10-16T07:38:47;12.50;;;4.43;;
70071;SDS011;57434;42.794;23.302;2022-10-16T07:41:15;9.55;;;4.35;;
70071;SDS011;57434;42.794;23.302;2022-10-16T07:43:47;9.40;;;3.83;;
70071;SDS011;57434;42.794;23.302;2022-10-16T07:46:15;10.83;;;4.10;;
70071;SDS011;57434;42.794;23.302;2022-10-16T07:48:43;9.73;;;4.43;;
70071;SDS011;57434;42.794;23.302;2022-10-16T07:51:10;8.80;;;5.28;;
70071;SDS011;57434;42.794;23.302;2022-10-16T07:53:38;11.00;;;5.18;;
70071;SDS011;57434;42.794;23.302;2022-10-16T07:56:06;16.02;;;8.95;;
70071;SDS011;57434;42.794;23.302;2022-10-16T07:58:34;18.00;;;9.77;;
70071;SDS011;57434;42.794;23.302;2022-10-16T08:01:03;8.82;;;4.70;;
70071;SDS011;57434;42.794;23.302;2022-10-16T08:03:31;11.98;;;4.70;;
70071;SDS011;57434;42.794;23.302;2022-10-16T08:05:58;9.93;;;4.55;;
70071;SDS011;57434;42.794;23.302;2022-10-16T08:08:26;10.75;;;4.90;;
70071;SDS011;57434;42.794;23.302;2022-10-16T08:10:54;11.27;;;5.17;;
70071;SDS011;57434;42.794;23.302;2022-10-16T08:13:21;10.93;;;5.07;;
70071;SDS011;57434;42.794;23.302;2022-10-16T08:15:48;13.70;;;7.50;;
70071;SDS011;57434;42.794;23.302;2022-10-16T08:18:15;10.23;;;4.60;;
70071;SDS011;57434;42.794;23.302;2022-10-16T08:20:43;10.23;;;4.43;;
70071;SDS011;57434;42.794;23.302;2022-10-16T08:23:12;10.43;;;4.90;;
70071;SDS011;57434;42.794;23.302;2022-10-16T08:25:39;12.93;;;5.35;;
70071;SDS011;57434;42.794;23.302;2022-10-16T08:28:08;11.13;;;5.05;;
70071;SDS011;57434;42.794;23.302;2022-10-16T08:30:37;12.93;;;5.47;;
70071;SDS011;57434;42.794;23.302;2022-10-16T08:33:05;9.88;;;5.30;;
70071;SDS011;57434;42.794;23.302;2022-10-16T08:35:35;12.23;;;5.10;;
70071;SDS011;57434;42.794;23.302;2022-10-16T08:38:03;8.70;;;4.63;;
70071;SDS011;57434;42.794;23.302;2022-10-16T08:40:31;21.20;;;6.53;;
70071;SDS011;57434;42.794;23.302;2022-10-16T08:51:08;12.27;;;4.05;;
70071;SDS011;57434;42.794;23.302;2022-10-16T08:53:49;10.90;;;4.22;;
70071;SDS011;57434;42.794;23.302;2022-10-16T08:56:23;7.97;;;4.03;;
70071;SDS011;57434;42.794;23.302;2022-10-16T08:58:50;7.57;;;3.38;;
70071;SDS011;57434;42.794;23.302;2022-10-16T09:01:34;6.73;;;3.00;;
70071;SDS011;57434;42.794;23.302;2022-10-16T09:04:25;8.30;;;3.67;;
70071;SDS011;57434;42.794;23.302;2022-10-16T09:21:18;6.97;;;3.17;;
70071;SDS011;57434;42.794;23.302;2022-10-16T09:23:50;7.00;;;3.35;;
70071;SDS011;57434;42.794;23.302;2022-10-16T09:26:18;7.13;;;3.50;;
70071;SDS011;57434;42.794;23.302;2022-10-16T09:28:45;7.03;;;3.37;;
70071;SDS011;57434;42.794;23.302;2022-10-16T09:31:15;10.35;;;3.95;;
70071;SDS011;57434;42.794;23.302;2022-10-16T09:33:44;7.85;;;3.80;;
70071;SDS011;57434;42.794;23.302;2022-10-16T09:36:15;7.70;;;3.05;;
70071;SDS011;57434;42.794;23.302;2022-10-16T09:38:43;8.07;;;3.30;;
70071;SDS011;57434;42.794;23.302;2022-10-16T09:41:18;7.63;;;3.40;;
70071;SDS011;57434;42.794;23.302;2022-10-16T09:43:57;6.47;;;3.05;;
70071;SDS011;57434;42.794;23.302;2022-10-16T09:46:30;9.18;;;4.95;;
70071;SDS011;57434;42.794;23.302;2022-10-16T09:49:16;10.13;;;5.63;;
70071;SDS011;57434;42.794;23.302;2022-10-16T09:51:48;12.07;;;5.45;;
70071;SDS011;57434;42.794;23.302;2022-10-16T09:54:17;8.13;;;3.80;;
70071;SDS011;57434;42.794;23.302;2022-10-16T09:56:46;6.85;;;3.40;;
70071;SDS011;57434;42.794;23.302;2022-10-16T09:59:15;8.02;;;3.17;;
70071;SDS011;57434;42.794;23.302;2022-10-16T10:01:48;7.50;;;3.47;;
70071;SDS011;57434;42.794;23.302;2022-10-16T10:04:18;5.95;;;3.20;;
70071;SDS011;57434;42.794;23.302;2022-10-16T10:06:47;8.13;;;3.17;;
70071;SDS011;57434;42.794;23.302;2022-10-16T10:09:21;7.45;;;2.90;;
70071;SDS011;57434;42.794;23.302;2022-10-16T10:14:46;6.35;;;2.67;;
70071;SDS011;57434;42.794;23.302;2022-10-16T10:17:22;8.05;;;3.35;;
70071;SDS011;57434;42.794;23.302;2022-10-16T10:19:54;6.27;;;3.10;;
70071;SDS011;57434;42.794;23.302;2022-10-16T10:27:24;5.82;;;2.70;;
70071;SDS011;57434;42.794;23.302;2022-10-16T10:35:43;6.85;;;2.55;;
70071;SDS011;57434;42.794;23.302;2022-10-16T10:38:25;10.27;;;3.40;;
70071;SDS011;57434;42.794;23.302;2022-10-16T10:41:13;6.35;;;3.50;;
70071;SDS011;57434;42.794;23.302;2022-10-16T10:46:50;6.47;;;2.93;;
70071;SDS011;57434;42.794;23.302;2022-10-16T10:49:34;6.22;;;2.60;;
70071;SDS011;57434;42.794;23.302;2022-10-16T10:57:41;6.60;;;3.00;;
70071;SDS011;57434;42.794;23.302;2022-10-16T11:00:56;5.37;;;2.33;;
70071;SDS011;57434;42.794;23.302;2022-10-16T11:03:31;6.97;;;3.00;;
70071;SDS011;57434;42.794;23.302;2022-10-16T11:06:08;6.30;;;3.00;;
70071;SDS011;57434;42.794;23.302;2022-10-16T11:11:33;6.50;;;2.60;;
70071;SDS011;57434;42.794;23.302;2022-10-16T11:16:39;5.95;;;2.35;;
70071;SDS011;57434;42.794;23.302;2022-10-16T11:19:19;6.10;;;2.40;;
70071;SDS011;57434;42.794;23.302;2022-10-16T11:22:03;5.80;;;2.40;;
70071;SDS011;57434;42.794;23.302;2022-10-16T11:28:16;7.97;;;2.67;;
70071;SDS011;57434;42.794;23.302;2022-10-16T11:39:21;6.45;;;2.60;;
70071;SDS011;57434;42.794;23.302;2022-10-16T11:47:30;6.75;;;2.65;;
70071;SDS011;57434;42.794;23.302;2022-10-16T11:56:06;6.50;;;2.47;;
70071;SDS011;57434;42.794;23.302;2022-10-16T11:58:38;6.05;;;2.40;;
70071;SDS011;57434;42.794;23.302;2022-10-16T12:01:16;10.13;;;5.75;;
70071;SDS011;57434;42.794;23.302;2022-10-16T12:04:36;7.43;;;3.33;;
70071;SDS011;57434;42.794;23.302;2022-10-16T12:06:57;7.15;;;2.85;;
70071;SDS011;57434;42.794;23.302;2022-10-16T12:09:33;7.43;;;2.20;;
70071;SDS011;57434;42.794;23.302;2022-10-16T12:12:03;5.18;;;2.10;;
70071;SDS011;57434;42.794;23.302;2022-10-16T12:17:35;5.03;;;2.40;;
70071;SDS011;57434;42.794;23.302;2022-10-16T12:30:35;4.93;;;1.70;;
70071;SDS011;57434;42.794;23.302;2022-10-16T12:33:04;4.20;;;1.40;;
70071;SDS011;57434;42.794;23.302;2022-10-16T12:35:43;3.40;;;1.30;;
70071;SDS011;57434;42.794;23.302;2022-10-16T12:38:15;6.05;;;1.20;;
70071;SDS011;57434;42.794;23.302;2022-10-16T12:41:01;4.40;;;1.45;;
70071;SDS011;57434;42.794;23.302;2022-10-16T12:43:46;5.25;;;1.67;;
70071;SDS011;57434;42.794;23.302;2022-10-16T12:48:42;10.77;;;5.53;;
70071;SDS011;57434;42.794;23.302;2022-10-16T12:53:58;8.20;;;2.53;;
70071;SDS011;57434;42.794;23.302;2022-10-16T12:57:34;4.72;;;2.03;;
70071;SDS011;57434;42.794;23.302;2022-10-16T12:59:55;4.00;;;1.40;;
70071;SDS011;57434;42.794;23.302;2022-10-16T13:05:21;4.07;;;1.30;;
70071;SDS011;57434;42.794;23.302;2022-10-16T13:18:53;4.53;;;1.73;;
70071;SDS011;57434;42.794;23.302;2022-10-16T13:24:27;5.82;;;2.38;;
70071;SDS011;57434;42.794;23.302;2022-10-16T13:27:09;8.98;;;2.63;;
70071;SDS011;57434;42.794;23.302;2022-10-16T13:29:53;5.17;;;1.80;;
70071;SDS011;57434;42.794;23.302;2022-10-16T13:32:27;5.03;;;2.00;;
70071;SDS011;57434;42.794;23.302;2022-10-16T13:34:55;5.85;;;1.98;;
70071;SDS011;57434;42.794;23.302;2022-10-16T13:37:24;5.28;;;1.83;;
70071;SDS011;57434;42.794;23.302;2022-10-16T13:40:02;5.53;;;2.15;;
70071;SDS011;57434;42.794;23.302;2022-10-16T13:42:46;4.13;;;1.50;;
70071;SDS011;57434;42.794;23.302;2022-10-16T13:45:20;8.65;;;3.30;;
70071;SDS011;57434;42.794;23.302;2022-10-16T13:47:48;8.75;;;2.30;;
70071;SDS011;57434;42.794;23.302;2022-10-16T13:50:16;4.60;;;1.73;;
70071;SDS011;57434;42.794;23.302;2022-10-16T13:52:44;4.90;;;1.70;;
70071;SDS011;57434;42.794;23.302;2022-10-16T13:55:15;4.17;;;1.70;;
70071;SDS011;57434;42.794;23.302;2022-10-16T13:57:44;6.93;;;2.00;;
70071;SDS011;57434;42.794;23.302;2022-10-16T14:00:51;9.38;;;3.97;;
70071;SDS011;57434;42.794;23.302;2022-10-16T14:03:05;7.43;;;3.25;;
70071;SDS011;57434;42.794;23.302;2022-10-16T14:05:52;6.70;;;2.03;;
70071;SDS011;57434;42.794;23.302;2022-10-16T14:08:22;5.83;;;2.80;;
70071;SDS011;57434;42.794;23.302;2022-10-16T14:10:51;8.68;;;2.47;;
70071;SDS011;57434;42.794;23.302;2022-10-16T14:16:27;7.70;;;2.53;;
70071;SDS011;57434;42.794;23.302;2022-10-16T14:18:57;5.35;;;2.17;;
70071;SDS011;57434;42.794;23.302;2022-10-16T14:21:26;9.80;;;2.40;;
70071;SDS011;57434;42.794;23.302;2022-10-16T14:23:54;9.38;;;2.45;;
70071;SDS011;57434;42.794;23.302;2022-10-16T14:26:27;8.05;;;2.20;;
70071;SDS011;57434;42.794;23.302;2022-10-16T14:29:09;5.78;;;1.90;;
70071;SDS011;57434;42.794;23.302;2022-10-16T14:31:38;7.00;;;2.17;;
70071;SDS011;57434;42.794;23.302;2022-10-16T14:36:54;5.53;;;1.90;;
70071;SDS011;57434;42.794;23.302;2022-10-16T14:39:22;7.70;;;2.10;;
70071;SDS011;57434;42.794;23.302;2022-10-16T14:41:52;7.40;;;3.28;;
70071;SDS011;57434;42.794;23.302;2022-10-16T14:44:23;5.65;;;2.33;;
70071;SDS011;57434;42.794;23.302;2022-10-16T14:46:55;5.37;;;2.53;;
70071;SDS011;57434;42.794;23.302;2022-10-16T14:49:23;4.25;;;1.90;;
70071;SDS011;57434;42.794;23.302;2022-10-16T14:51:50;5.43;;;2.22;;
70071;SDS011;57434;42.794;23.302;2022-10-16T14:54:18;5.43;;;2.10;;
70071;SDS011;57434;42.794;23.302;2022-10-16T14:56:55;6.05;;;2.50;;
70071;SDS011;57434;42.794;23.302;2022-10-16T14:59:25;4.80;;;1.80;;
70071;SDS011;57434;42.794;23.302;2022-10-16T15:01:56;4.70;;;2.10;;
70071;SDS011;57434;42.794;23.302;2022-10-16T15:04:25;4.80;;;2.08;;
70071;SDS011;57434;42.794;23.302;2022-10-16T15:06:52;6.07;;;1.98;;
70071;SDS011;57434;42.794;23.302;2022-10-16T15:09:19;5.13;;;1.95;;
70071;SDS011;57434;42.794;23.302;2022-10-16T15:11:46;4.90;;;2.20;;
70071;SDS011;57434;42.794;23.302;2022-10-16T15:14:13;5.72;;;2.08;;
70071;SDS011;57434;42.794;23.302;2022-10-16T15:16:40;5.90;;;2.30;;
70071;SDS011;57434;42.794;23.302;2022-10-16T15:19:07;5.43;;;1.90;;
70071;SDS011;57434;42.794;23.302;2022-10-16T15:21:34;5.88;;;2.10;;
70071;SDS011;57434;42.794;23.302;2022-10-16T15:24:01;5.13;;;2.07;;
70071;SDS011;57434;42.794;23.302;2022-10-16T15:26:28;7.10;;;2.22;;
70071;SDS011;57434;42.794;23.302;2022-10-16T15:28:56;9.88;;;3.85;;
70071;SDS011;57434;42.794;23.302;2022-10-16T15:31:23;6.25;;;2.05;;
70071;SDS011;57434;42.794;23.302;2022-10-16T15:33:51;4.95;;;1.92;;
70071;SDS011;57434;42.794;23.302;2022-10-16T15:36:28;6.20;;;2.13;;
70071;SDS011;57434;42.794;23.302;2022-10-16T15:38:57;6.22;;;2.50;;
70071;SDS011;57434;42.794;23.302;2022-10-16T15:41:24;8.10;;;3.05;;
70071;SDS011;57434;42.794;23.302;2022-10-16T15:43:51;9.73;;;2.30;;
70071;SDS011;57434;42.794;23.302;2022-10-16T15:46:19;7.00;;;2.45;;
70071;SDS011;57434;42.794;23.302;2022-10-16T15:48:50;6.10;;;2.10;;
70071;SDS011;57434;42.794;23.302;2022-10-16T15:51:22;12.80;;;2.60;;
70071;SDS011;57434;42.794;23.302;2022-10-16T15:53:49;7.07;;;2.58;;
70071;SDS011;57434;42.794;23.302;2022-10-16T15:56:16;8.90;;;2.10;;
70071;SDS011;57434;42.794;23.302;2022-10-16T15:58:43;6.82;;;2.33;;
70071;SDS011;57434;42.794;23.302;2022-10-16T16:01:10;6.70;;;2.33;;
70071;SDS011;57434;42.794;23.302;2022-10-16T16:03:37;22.70;;;10.82;;
70071;SDS011;57434;42.794;23.302;2022-10-16T16:06:09;31.38;;;16.48;;
70071;SDS011;57434;42.794;23.302;2022-10-16T16:08:38;6.15;;;2.80;;
70071;SDS011;57434;42.794;23.302;2022-10-16T16:11:07;9.15;;;2.63;;
70071;SDS011;57434;42.794;23.302;2022-10-16T16:13:36;6.17;;;2.43;;
70071;SDS011;57434;42.794;23.302;2022-10-16T16:16:06;5.72;;;2.20;;
70071;SDS011;57434;42.794;23.302;2022-10-16T16:18:38;5.55;;;2.00;;
70071;SDS011;57434;42.794;23.302;2022-10-16T16:21:05;5.07;;;2.30;;
70071;SDS011;57434;42.794;23.302;2022-10-16T16:23:33;7.43;;;2.45;;
70071;SDS011;57434;42.794;23.302;2022-10-16T16:26:07;5.50;;;2.20;;
70071;SDS011;57434;42.794;23.302;2022-10-16T16:28:39;7.72;;;2.50;;
70071;SDS011;57434;42.794;23.302;2022-10-16T16:31:07;4.80;;;1.73;;
70071;SDS011;57434;42.794;23.302;2022-10-16T16:33:35;7.18;;;2.40;;
70071;SDS011;57434;42.794;23.302;2022-10-16T16:36:02;6.20;;;2.53;;
70071;SDS011;57434;42.794;23.302;2022-10-16T16:38:31;6.37;;;2.10;;
70071;SDS011;57434;42.794;23.302;2022-10-16T16:40:59;6.90;;;1.77;;
70071;SDS011;57434;42.794;23.302;2022-10-16T16:43:26;7.63;;;2.40;;
70071;SDS011;57434;42.794;23.302;2022-10-16T16:45:53;6.53;;;2.03;;
70071;SDS011;57434;42.794;23.302;2022-10-16T16:48:20;6.68;;;2.10;;
70071;SDS011;57434;42.794;23.302;2022-10-16T16:50:49;5.63;;;2.30;;
70071;SDS011;57434;42.794;23.302;2022-10-16T16:53:16;7.53;;;3.53;;
70071;SDS011;57434;42.794;23.302;2022-10-16T16:55:43;7.07;;;2.72;;
70071;SDS011;57434;42.794;23.302;2022-10-16T16:58:10;5.20;;;2.60;;
70071;SDS011;57434;42.794;23.302;2022-10-16T17:00:36;7.47;;;3.00;;